sensor_id;sensor_type;location;lat;lon;timestamp;temperature;humidity
57719;DHT22;43561;50.090;18.522;2023-05-09T00:01:09;5.90;99.90
57719;DHT22;43561;50.090;18.522;2023-05-09T00:11:11;5.70;99.90
57719;DHT22;43561;50.090;18.522;2023-05-09T00:21:13;5.70;99.90
57719;DHT22;43561;50.090;18.522;2023-05-09T00:31:15;5.60;99.90
57719;DHT22;43561;50.090;18.522;2023-05-09T00:41:17;5.60;99.90
57719;DHT22;43561;50.090;18.522;2023-05-09T00:51:19;5.40;99.90
57719;DHT22;43561;50.090;18.522;2023-05-09T01:01:22;5.40;99.90
57719;DHT22;43561;50.090;18.522;2023-05-09T01:11:31;5.40;99.90
57719;DHT22;43561;50.090;18.522;2023-05-09T01:21:34;5.30;99.90
57719;DHT22;43561;50.090;18.522;2023-05-09T01:31:40;5.20;99.90
57719;DHT22;43561;50.090;18.522;2023-05-09T01:41:42;5.20;99.90
57719;DHT22;43561;50.090;18.522;2023-05-09T01:51:46;5.20;99.90
57719;DHT22;43561;50.090;18.522;2023-05-09T02:01:48;5.10;99.90
57719;DHT22;43561;50.090;18.522;2023-05-09T02:11:51;5.00;99.90
57719;DHT22;43561;50.090;18.522;2023-05-09T02:21:53;5.10;99.90
57719;DHT22;43561;50.090;18.522;2023-05-09T02:31:56;5.00;99.90
57719;DHT22;43561;50.090;18.522;2023-05-09T02:42:10;4.90;99.90
57719;DHT22;43561;50.090;18.522;2023-05-09T02:52:12;4.90;99.90
57719;DHT22;43561;50.090;18.522;2023-05-09T03:02:15;4.80;99.90
57719;DHT22;43561;50.090;18.522;2023-05-09T03:12:17;4.80;99.90
57719;DHT22;43561;50.090;18.522;2023-05-09T03:22:19;4.80;99.90
57719;DHT22;43561;50.090;18.522;2023-05-09T03:32:28;4.70;99.90
57719;DHT22;43561;50.090;18.522;2023-05-09T03:42:31;4.70;99.90
57719;DHT22;43561;50.090;18.522;2023-05-09T03:52:35;4.90;99.90
57719;DHT22;43561;50.090;18.522;2023-05-09T04:02:38;5.40;99.90
57719;DHT22;43561;50.090;18.522;2023-05-09T04:12:42;5.70;99.90
57719;DHT22;43561;50.090;18.522;2023-05-09T04:22:45;6.00;99.90
57719;DHT22;43561;50.090;18.522;2023-05-09T04:32:49;6.50;99.90
57719;DHT22;43561;50.090;18.522;2023-05-09T04:42:52;7.30;99.90
57719;DHT22;43561;50.090;18.522;2023-05-09T04:53:00;8.20;99.90
57719;DHT22;43561;50.090;18.522;2023-05-09T05:03:03;8.40;99.90
57719;DHT22;43561;50.090;18.522;2023-05-09T05:13:05;10.20;99.90
57719;DHT22;43561;50.090;18.522;2023-05-09T05:23:09;10.30;99.90
57719;DHT22;43561;50.090;18.522;2023-05-09T05:33:11;10.70;99.20
57719;DHT22;43561;50.090;18.522;2023-05-09T05:43:14;9.30;99.90
57719;DHT22;43561;50.090;18.522;2023-05-09T05:53:16;10.70;99.40
57719;DHT22;43561;50.090;18.522;2023-05-09T06:03:19;10.40;99.90
57719;DHT22;43561;50.090;18.522;2023-05-09T06:13:30;11.30;97.90
57719;DHT22;43561;50.090;18.522;2023-05-09T06:23:37;11.40;95.30
57719;DHT22;43561;50.090;18.522;2023-05-09T06:33:51;11.20;94.80
57719;DHT22;43561;50.090;18.522;2023-05-09T06:43:53;11.30;94.60
57719;DHT22;43561;50.090;18.522;2023-05-09T06:53:55;12.30;91.10
57719;DHT22;43561;50.090;18.522;2023-05-09T07:03:57;12.60;90.50
57719;DHT22;43561;50.090;18.522;2023-05-09T07:13:59;12.40;84.60
57719;DHT22;43561;50.090;18.522;2023-05-09T07:24:01;13.10;78.70
57719;DHT22;43561;50.090;18.522;2023-05-09T07:34:03;12.90;73.20
57719;DHT22;43561;50.090;18.522;2023-05-09T07:44:05;13.90;67.80
57719;DHT22;43561;50.090;18.522;2023-05-09T07:54:07;13.50;66.00
57719;DHT22;43561;50.090;18.522;2023-05-09T08:04:09;14.40;62.50
57719;DHT22;43561;50.090;18.522;2023-05-09T08:14:11;13.90;63.70
57719;DHT22;43561;50.090;18.522;2023-05-09T08:24:15;14.50;65.00
57719;DHT22;43561;50.090;18.522;2023-05-09T08:34:17;14.70;61.20
57719;DHT22;43561;50.090;18.522;2023-05-09T08:44:19;15.30;61.80
57719;DHT22;43561;50.090;18.522;2023-05-09T08:54:22;14.90;60.70
57719;DHT22;43561;50.090;18.522;2023-05-09T09:04:24;14.70;63.70
57719;DHT22;43561;50.090;18.522;2023-05-09T09:14:27;15.60;60.30
57719;DHT22;43561;50.090;18.522;2023-05-09T09:24:33;14.80;60.30
57719;DHT22;43561;50.090;18.522;2023-05-09T09:34:35;16.00;59.30
57719;DHT22;43561;50.090;18.522;2023-05-09T09:44:37;16.20;60.70
57719;DHT22;43561;50.090;18.522;2023-05-09T09:54:39;15.30;60.60
57719;DHT22;43561;50.090;18.522;2023-05-09T10:04:41;16.10;59.00
57719;DHT22;43561;50.090;18.522;2023-05-09T10:14:44;15.60;58.70
57719;DHT22;43561;50.090;18.522;2023-05-09T10:25:18;17.50;52.60
57719;DHT22;43561;50.090;18.522;2023-05-09T10:35:25;16.20;56.20
57719;DHT22;43561;50.090;18.522;2023-05-09T10:45:28;16.20;56.10
57719;DHT22;43561;50.090;18.522;2023-05-09T10:55:38;15.50;56.50
57719;DHT22;43561;50.090;18.522;2023-05-09T11:05:40;15.50;56.70
57719;DHT22;43561;50.090;18.522;2023-05-09T11:16:09;15.90;55.30
57719;DHT22;43561;50.090;18.522;2023-05-09T11:26:13;15.80;55.70
57719;DHT22;43561;50.090;18.522;2023-05-09T11:36:19;15.70;55.10
57719;DHT22;43561;50.090;18.522;2023-05-09T11:46:21;16.40;53.20
57719;DHT22;43561;50.090;18.522;2023-05-09T11:56:24;16.30;53.20
57719;DHT22;43561;50.090;18.522;2023-05-09T12:06:26;16.30;51.70
57719;DHT22;43561;50.090;18.522;2023-05-09T12:16:28;16.20;52.90
57719;DHT22;43561;50.090;18.522;2023-05-09T12:26:30;16.30;52.70
57719;DHT22;43561;50.090;18.522;2023-05-09T12:36:34;16.50;51.80
57719;DHT22;43561;50.090;18.522;2023-05-09T12:46:35;17.10;51.20
57719;DHT22;43561;50.090;18.522;2023-05-09T12:56:38;16.40;51.70
57719;DHT22;43561;50.090;18.522;2023-05-09T13:06:51;17.10;52.30
57719;DHT22;43561;50.090;18.522;2023-05-09T13:16:53;17.20;50.50
57719;DHT22;43561;50.090;18.522;2023-05-09T13:26:55;17.50;50.80
57719;DHT22;43561;50.090;18.522;2023-05-09T13:36:57;16.80;49.90
57719;DHT22;43561;50.090;18.522;2023-05-09T13:46:59;17.20;50.20
57719;DHT22;43561;50.090;18.522;2023-05-09T13:57:04;17.10;51.40
57719;DHT22;43561;50.090;18.522;2023-05-09T14:07:06;16.90;50.10
57719;DHT22;43561;50.090;18.522;2023-05-09T14:17:08;17.10;50.30
57719;DHT22;43561;50.090;18.522;2023-05-09T14:27:10;16.70;49.10
57719;DHT22;43561;50.090;18.522;2023-05-09T14:37:12;16.90;49.90
57719;DHT22;43561;50.090;18.522;2023-05-09T14:47:14;17.00;49.80
57719;DHT22;43561;50.090;18.522;2023-05-09T14:57:16;16.60;49.60
57719;DHT22;43561;50.090;18.522;2023-05-09T15:07:18;16.80;50.30
57719;DHT22;43561;50.090;18.522;2023-05-09T15:17:20;16.80;50.30
57719;DHT22;43561;50.090;18.522;2023-05-09T15:27:22;16.50;50.40
57719;DHT22;43561;50.090;18.522;2023-05-09T15:37:24;16.30;50.50
57719;DHT22;43561;50.090;18.522;2023-05-09T15:47:26;16.30;50.00
57719;DHT22;43561;50.090;18.522;2023-05-09T15:57:28;16.30;50.30
57719;DHT22;43561;50.090;18.522;2023-05-09T16:07:30;16.30;49.90
57719;DHT22;43561;50.090;18.522;2023-05-09T16:17:36;16.00;50.20
57719;DHT22;43561;50.090;18.522;2023-05-09T16:27:38;15.90;49.90
57719;DHT22;43561;50.090;18.522;2023-05-09T16:37:40;15.80;50.20
57719;DHT22;43561;50.090;18.522;2023-05-09T16:47:42;15.60;50.00
57719;DHT22;43561;50.090;18.522;2023-05-09T16:57:44;15.50;50.20
57719;DHT22;43561;50.090;18.522;2023-05-09T17:07:46;15.40;50.10
57719;DHT22;43561;50.090;18.522;2023-05-09T17:17:48;15.20;50.40
57719;DHT22;43561;50.090;18.522;2023-05-09T17:27:50;14.90;50.60
57719;DHT22;43561;50.090;18.522;2023-05-09T17:37:52;14.70;50.90
57719;DHT22;43561;50.090;18.522;2023-05-09T17:47:54;14.60;51.30
57719;DHT22;43561;50.090;18.522;2023-05-09T17:57:56;14.30;51.70
57719;DHT22;43561;50.090;18.522;2023-05-09T18:07:58;14.10;52.20
57719;DHT22;43561;50.090;18.522;2023-05-09T18:18:00;13.80;52.30
57719;DHT22;43561;50.090;18.522;2023-05-09T18:28:02;13.60;52.50
57719;DHT22;43561;50.090;18.522;2023-05-09T18:38:04;13.40;52.90
57719;DHT22;43561;50.090;18.522;2023-05-09T18:48:06;13.20;53.60
57719;DHT22;43561;50.090;18.522;2023-05-09T18:58:08;13.00;53.80
57719;DHT22;43561;50.090;18.522;2023-05-09T19:08:10;12.80;54.00
57719;DHT22;43561;50.090;18.522;2023-05-09T19:18:12;12.70;54.00
57719;DHT22;43561;50.090;18.522;2023-05-09T19:28:14;12.50;54.10
57719;DHT22;43561;50.090;18.522;2023-05-09T19:38:16;12.30;54.30
57719;DHT22;43561;50.090;18.522;2023-05-09T19:48:18;12.30;54.70
57719;DHT22;43561;50.090;18.522;2023-05-09T19:58:20;12.20;55.30
57719;DHT22;43561;50.090;18.522;2023-05-09T20:08:22;12.00;56.10
57719;DHT22;43561;50.090;18.522;2023-05-09T20:18:41;11.90;56.50
57719;DHT22;43561;50.090;18.522;2023-05-09T20:28:43;11.70;57.80
57719;DHT22;43561;50.090;18.522;2023-05-09T20:38:45;11.60;58.10
57719;DHT22;43561;50.090;18.522;2023-05-09T20:48:47;11.50;59.40
57719;DHT22;43561;50.090;18.522;2023-05-09T20:58:49;11.30;60.90
57719;DHT22;43561;50.090;18.522;2023-05-09T21:08:51;11.10;62.90
57719;DHT22;43561;50.090;18.522;2023-05-09T21:18:53;10.80;65.90
57719;DHT22;43561;50.090;18.522;2023-05-09T21:28:54;10.60;69.90
57719;DHT22;43561;50.090;18.522;2023-05-09T21:38:57;10.40;73.20
57719;DHT22;43561;50.090;18.522;2023-05-09T21:48:59;10.20;77.40
57719;DHT22;43561;50.090;18.522;2023-05-09T21:59:01;10.00;81.90
57719;DHT22;43561;50.090;18.522;2023-05-09T22:09:03;9.80;86.80
57719;DHT22;43561;50.090;18.522;2023-05-09T22:19:05;9.60;90.60
57719;DHT22;43561;50.090;18.522;2023-05-09T22:29:07;9.50;92.70
57719;DHT22;43561;50.090;18.522;2023-05-09T22:39:09;9.30;94.30
57719;DHT22;43561;50.090;18.522;2023-05-09T22:49:11;9.10;95.40
57719;DHT22;43561;50.090;18.522;2023-05-09T22:59:13;9.00;96.50
57719;DHT22;43561;50.090;18.522;2023-05-09T23:09:15;8.80;98.00
57719;DHT22;43561;50.090;18.522;2023-05-09T23:19:17;8.70;98.70
57719;DHT22;43561;50.090;18.522;2023-05-09T23:29:19;8.50;99.40
57719;DHT22;43561;50.090;18.522;2023-05-09T23:39:21;8.40;99.90
57719;DHT22;43561;50.090;18.522;2023-05-09T23:49:23;8.30;99.90
57719;DHT22;43561;50.090;18.522;2023-05-09T23:59:24;8.30;99.90
